Time;durP1;ratioP1;P1;durP2;ratioP2;P2;SDS_P1;SDS_P2;PMS_P1;PMS_P2;Temp;Humidity;BMP_temperature;BMP_pressure;BME280_temperature;BME280_humidity;BME280_pressure;Samples;Min_cycle;Max_cycle;Signal;HPM_P1;HPM_P2
2023/03/19 00:02:26;;;;;;;10.83;7.43;;;10.00;99.90;;;;;;5168373;28;21023;-54
2023/03/19 00:04:56;;;;;;;13.00;8.93;;;9.90;99.90;;;;;;5160907;28;20638;-52
2023/03/19 00:07:27;;;;;;;14.13;8.17;;;9.90;99.90;;;;;;5166128;28;20193;-52
2023/03/19 00:09:58;;;;;;;11.50;8.00;;;9.90;99.90;;;;;;5165991;28;20181;-51
2023/03/19 00:12:28;;;;;;;13.30;8.37;;;9.90;99.90;;;;;;5170304;28;20594;-50
2023/03/19 00:15:00;;;;;;;14.70;8.17;;;9.80;99.90;;;;;;5159165;28;20531;-50
2023/03/19 00:17:31;;;;;;;14.00;9.17;;;9.80;99.90;;;;;;5152972;28;20235;-51
2023/03/19 00:20:02;;;;;;;11.87;8.27;;;9.80;99.90;;;;;;5176284;28;20526;-52
2023/03/19 00:22:32;;;;;;;12.17;8.30;;;9.80;99.90;;;;;;5161449;28;21033;-50
2023/03/19 00:25:04;;;;;;;20.07;8.80;;;9.80;99.90;;;;;;5168755;28;20531;-50
2023/03/19 00:27:37;;;;;;;18.97;10.80;;;9.80;99.90;;;;;;5164799;28;20208;-50
2023/03/19 00:30:08;;;;;;;23.00;10.10;;;9.70;99.90;;;;;;5164622;28;20586;-50
2023/03/19 00:32:39;;;;;;;15.60;9.50;;;9.70;99.90;;;;;;5170703;28;20531;-51
2023/03/19 00:35:10;;;;;;;16.93;10.70;;;9.70;99.90;;;;;;5170387;28;20455;-49
2023/03/19 00:37:40;;;;;;;11.23;9.03;;;9.70;99.90;;;;;;5151265;28;20449;-51
2023/03/19 00:40:11;;;;;;;14.83;8.80;;;9.60;99.90;;;;;;5155434;28;20204;-52
2023/03/19 00:42:43;;;;;;;16.97;9.97;;;9.60;99.90;;;;;;5166903;28;20185;-50
2023/03/19 00:45:15;;;;;;;16.30;8.97;;;9.60;99.90;;;;;;5147553;28;20439;-49
2023/03/19 00:47:46;;;;;;;13.17;9.87;;;9.50;99.90;;;;;;5181037;28;20479;-51
2023/03/19 00:50:17;;;;;;;15.90;9.70;;;9.50;99.90;;;;;;5173860;28;20439;-50
2023/03/19 00:52:48;;;;;;;13.90;9.60;;;9.50;99.90;;;;;;5168384;28;20440;-50
2023/03/19 00:55:18;;;;;;;15.30;9.57;;;9.40;99.90;;;;;;5166064;28;20209;-50
2023/03/19 00:57:49;;;;;;;16.50;10.80;;;9.40;99.90;;;;;;5175233;28;20205;-49
2023/03/19 01:00:20;;;;;;;14.30;10.47;;;9.30;99.90;;;;;;5165071;28;20572;-49
2023/03/19 01:02:50;;;;;;;15.87;10.33;;;9.30;99.90;;;;;;5163870;28;20235;-50
2023/03/19 01:05:22;;;;;;;20.40;11.33;;;9.20;99.90;;;;;;5166807;28;20188;-49
2023/03/19 01:07:53;;;;;;;25.23;14.17;;;9.20;99.90;;;;;;5168319;28;20279;-50
2023/03/19 01:10:24;;;;;;;19.60;11.53;;;9.20;99.90;;;;;;5165097;28;20536;-50
2023/03/19 01:12:55;;;;;;;18.63;11.60;;;9.10;99.90;;;;;;5166775;28;20267;-51
2023/03/19 01:15:26;;;;;;;18.80;11.07;;;9.10;99.90;;;;;;5168511;28;20564;-51
2023/03/19 01:17:57;;;;;;;22.73;11.20;;;9.00;99.90;;;;;;5177232;28;20455;-50
2023/03/19 01:20:27;;;;;;;25.30;10.43;;;9.10;99.90;;;;;;5162899;28;20589;-50
2023/03/19 01:22:58;;;;;;;17.80;11.27;;;9.00;99.90;;;;;;5167604;28;20189;-49
2023/03/19 01:25:29;;;;;;;17.40;11.00;;;9.00;99.90;;;;;;5166558;28;20184;-51
2023/03/19 01:28:00;;;;;;;18.00;11.10;;;9.00;99.90;;;;;;5171127;28;20238;-50
2023/03/19 01:30:30;;;;;;;17.67;11.57;;;9.00;99.90;;;;;;5168621;28;20192;-49
2023/03/19 01:33:01;;;;;;;21.57;12.00;;;8.90;99.90;;;;;;5160510;28;20188;-50
2023/03/19 01:35:32;;;;;;;22.37;12.00;;;8.90;99.90;;;;;;5157729;28;20206;-49
2023/03/19 01:38:02;;;;;;;17.63;11.20;;;8.90;99.90;;;;;;5171952;28;20271;-50
2023/03/19 01:40:33;;;;;;;18.20;10.23;;;8.90;99.90;;;;;;5172084;28;20185;-50
2023/03/19 01:43:16;;;;;;;16.53;10.20;;;8.90;99.90;;;;;;5164417;28;20189;-51
2023/03/19 01:45:50;;;;;;;16.53;11.07;;;8.80;99.90;;;;;;5162321;28;20189;-49
2023/03/19 01:48:37;;;;;;;22.03;11.60;;;8.80;99.90;;;;;;5172511;28;20468;-49
2023/03/19 01:51:10;;;;;;;18.00;11.07;;;8.80;99.90;;;;;;5160662;28;20468;-49
2023/03/19 01:53:45;;;;;;;15.70;10.47;;;8.80;99.90;;;;;;5161876;28;20432;-49
2023/03/19 01:56:25;;;;;;;21.20;11.70;;;8.70;99.90;;;;;;5161389;28;20476;-49
2023/03/19 01:59:01;;;;;;;18.47;9.83;;;8.70;99.90;;;;;;5166531;28;20615;-51
2023/03/19 02:01:36;;;;;;;19.70;10.30;;;8.70;99.90;;;;;;5169674;28;20443;-50
2023/03/19 02:04:07;;;;;;;21.90;9.97;;;8.60;99.90;;;;;;5163222;28;20451;-51
2023/03/19 02:06:39;;;;;;;24.17;9.80;;;8.70;99.90;;;;;;5169825;28;20786;-55
2023/03/19 02:09:10;;;;;;;18.73;10.10;;;8.70;99.90;;;;;;5165492;28;20580;-49
2023/03/19 02:11:41;;;;;;;15.70;9.80;;;8.60;99.90;;;;;;5166971;28;20432;-50
2023/03/19 02:14:12;;;;;;;18.33;10.30;;;8.60;99.90;;;;;;5159914;28;20867;-51
2023/03/19 02:16:43;;;;;;;19.00;10.30;;;8.60;99.90;;;;;;5164526;28;20209;-50
2023/03/19 02:19:25;;;;;;;27.23;10.80;;;8.60;99.90;;;;;;5159115;28;20260;-50
2023/03/19 02:21:58;;;;;;;16.37;11.27;;;8.60;99.90;;;;;;5153616;28;20181;-51
2023/03/19 02:24:37;;;;;;;27.07;11.57;;;8.50;99.90;;;;;;5156627;28;20494;-51
2023/03/19 02:27:08;;;;;;;19.30;12.33;;;8.50;99.90;;;;;;5163179;28;20431;-50
2023/03/19 02:29:38;;;;;;;36.43;17.07;;;8.50;99.90;;;;;;5151119;28;20454;-51
2023/03/19 02:32:10;;;;;;;33.73;13.23;;;8.40;99.90;;;;;;5174587;28;20449;-52
2023/03/19 02:34:42;;;;;;;19.77;12.13;;;8.40;99.90;;;;;;5164966;28;20913;-49
2023/03/19 02:37:21;;;;;;;19.60;12.17;;;8.40;99.90;;;;;;5170733;28;20458;-51
2023/03/19 02:40:04;;;;;;;17.30;10.20;;;8.40;99.90;;;;;;5159235;28;20522;-50
2023/03/19 02:42:35;;;;;;;16.50;10.23;;;8.50;99.90;;;;;;5157713;28;20432;-50
2023/03/19 02:45:06;;;;;;;16.70;10.47;;;8.50;99.90;;;;;;5167988;28;20554;-51
2023/03/19 02:47:36;;;;;;;15.80;10.57;;;8.50;99.90;;;;;;5169718;28;20239;-53
2023/03/19 02:50:09;;;;;;;21.20;10.80;;;8.50;99.90;;;;;;5171774;28;20474;-51
2023/03/19 02:52:40;;;;;;;18.30;10.23;;;8.50;99.90;;;;;;5168966;28;20434;-49
2023/03/19 02:55:10;;;;;;;17.77;10.47;;;8.60;99.90;;;;;;5162947;28;20889;-53
2023/03/19 02:57:41;;;;;;;16.90;10.20;;;8.60;99.90;;;;;;5163539;28;20446;-50
2023/03/19 03:00:13;;;;;;;13.07;8.90;;;8.60;99.90;;;;;;5164436;28;20177;-52
2023/03/19 03:02:44;;;;;;;12.33;10.03;;;8.50;99.90;;;;;;5147820;28;20289;-49
2023/03/19 03:05:15;;;;;;;13.80;10.30;;;8.60;99.90;;;;;;5171085;28;20439;-50
2023/03/19 03:07:46;;;;;;;15.67;9.70;;;8.50;99.90;;;;;;5164927;28;20463;-50
2023/03/19 03:10:17;;;;;;;17.47;9.40;;;8.50;99.90;;;;;;5160922;28;20234;-50
2023/03/19 03:12:47;;;;;;;19.47;10.20;;;8.50;99.90;;;;;;5165040;28;21140;-50
2023/03/19 03:15:18;;;;;;;18.50;9.90;;;8.50;99.90;;;;;;5159493;28;20196;-49
2023/03/19 03:17:49;;;;;;;16.70;10.90;;;8.40;99.90;;;;;;5163507;28;20292;-49
2023/03/19 03:20:19;;;;;;;17.90;10.50;;;8.50;99.90;;;;;;5174775;28;20558;-49
2023/03/19 03:22:50;;;;;;;19.67;9.90;;;8.50;99.90;;;;;;5165407;28;20188;-52
2023/03/19 03:25:21;;;;;;;18.57;10.17;;;8.50;99.90;;;;;;5167991;28;20264;-48
2023/03/19 03:27:52;;;;;;;16.53;10.30;;;8.40;99.90;;;;;;5168668;28;20308;-49
2023/03/19 03:30:22;;;;;;;17.03;10.00;;;8.50;99.90;;;;;;5166272;28;20181;-49
2023/03/19 03:32:53;;;;;;;28.63;9.83;;;8.50;99.90;;;;;;5166606;28;20196;-49
2023/03/19 03:35:23;;;;;;;19.10;9.83;;;8.50;99.90;;;;;;5152654;28;20216;-48
2023/03/19 03:37:54;;;;;;;16.93;9.50;;;8.50;99.90;;;;;;5167816;28;20201;-48
2023/03/19 03:40:26;;;;;;;18.30;10.47;;;8.50;99.90;;;;;;5152542;28;20400;-49
2023/03/19 03:42:56;;;;;;;15.03;10.00;;;8.50;99.90;;;;;;5164412;28;20181;-49
2023/03/19 03:45:27;;;;;;;18.83;10.23;;;8.60;99.90;;;;;;5167331;28;20455;-48
2023/03/19 03:47:57;;;;;;;24.00;10.17;;;8.50;99.90;;;;;;5179094;23;20641;-48
2023/03/19 03:50:28;;;;;;;17.57;9.97;;;8.60;99.90;;;;;;5161699;28;20189;-49
2023/03/19 03:52:59;;;;;;;13.27;9.60;;;8.70;99.90;;;;;;5165970;28;20192;-47
2023/03/19 03:55:30;;;;;;;14.93;9.60;;;8.60;99.90;;;;;;5162691;28;20661;-48
2023/03/19 03:58:01;;;;;;;17.47;9.73;;;8.70;99.90;;;;;;5162847;28;20657;-48
2023/03/19 04:00:32;;;;;;;14.00;9.73;;;8.70;99.90;;;;;;5144875;28;20443;-48
2023/03/19 04:03:03;;;;;;;13.63;9.67;;;8.60;99.90;;;;;;5145283;28;20440;-49
2023/03/19 04:05:33;;;;;;;18.73;10.23;;;8.60;99.90;;;;;;5128322;28;20441;-49
2023/03/19 04:08:05;;;;;;;16.57;11.03;;;8.50;99.90;;;;;;5146164;28;20681;-48
2023/03/19 04:10:41;;;;;;;23.80;11.63;;;8.50;99.90;;;;;;5158189;28;20217;-49
2023/03/19 04:13:12;;;;;;;22.87;11.57;;;8.50;99.90;;;;;;5128879;28;20547;-49
2023/03/19 04:15:43;;;;;;;18.13;10.93;;;8.50;99.90;;;;;;5144580;28;20464;-50
2023/03/19 04:18:14;;;;;;;17.23;10.93;;;8.60;99.90;;;;;;5137925;28;20465;-48
2023/03/19 04:20:45;;;;;;;19.53;10.10;;;8.60;99.90;;;;;;5145651;28;20434;-48
2023/03/19 04:23:15;;;;;;;22.73;10.23;;;8.60;99.90;;;;;;5140967;28;20445;-48
2023/03/19 04:25:47;;;;;;;22.23;11.23;;;8.60;99.90;;;;;;5145984;28;20449;-49
2023/03/19 04:28:17;;;;;;;20.97;12.00;;;8.60;99.90;;;;;;5140893;28;20217;-46
2023/03/19 04:30:48;;;;;;;21.33;12.60;;;8.30;99.90;;;;;;5158408;28;20445;-48
2023/03/19 04:33:18;;;;;;;19.03;10.77;;;8.30;99.90;;;;;;5145233;28;20197;-48
2023/03/19 04:35:49;;;;;;;26.47;11.80;;;8.30;99.90;;;;;;5144230;28;20220;-49
2023/03/19 04:38:20;;;;;;;17.43;10.10;;;8.50;99.90;;;;;;5151226;28;20220;-49
2023/03/19 04:40:52;;;;;;;18.67;11.20;;;8.50;99.90;;;;;;5158310;28;20481;-48
2023/03/19 04:43:23;;;;;;;13.90;10.40;;;8.60;99.90;;;;;;5158114;28;20178;-47
2023/03/19 04:45:54;;;;;;;19.70;11.47;;;8.60;99.90;;;;;;5140520;28;20433;-47
2023/03/19 04:48:25;;;;;;;16.67;10.90;;;8.60;99.90;;;;;;5147448;28;20473;-47
2023/03/19 04:50:56;;;;;;;18.40;12.03;;;8.60;99.90;;;;;;5146847;28;20433;-48
2023/03/19 04:53:27;;;;;;;21.17;11.93;;;8.70;99.90;;;;;;5128981;28;20192;-48
2023/03/19 04:55:57;;;;;;;16.07;10.70;;;8.80;99.90;;;;;;5144637;28;20209;-47
2023/03/19 04:58:28;;;;;;;16.63;11.13;;;8.70;99.90;;;;;;5156420;28;20199;-48
2023/03/19 05:00:58;;;;;;;27.10;12.17;;;8.70;99.90;;;;;;5140264;28;20318;-47
2023/03/19 05:03:29;;;;;;;20.40;10.97;;;8.60;99.90;;;;;;5145510;28;20658;-48
2023/03/19 05:06:00;;;;;;;18.80;10.87;;;8.60;99.90;;;;;;5149696;28;20556;-48
2023/03/19 05:08:32;;;;;;;18.93;12.27;;;8.50;99.90;;;;;;5141618;28;20449;-46
2023/03/19 05:11:03;;;;;;;26.37;11.80;;;8.50;99.90;;;;;;5154922;28;20268;-46
2023/03/19 05:13:34;;;;;;;25.83;12.80;;;8.40;99.90;;;;;;5142315;28;20537;-45
2023/03/19 05:16:05;;;;;;;24.63;14.40;;;8.30;99.90;;;;;;5145582;28;20266;-46
2023/03/19 05:18:36;;;;;;;20.27;12.27;;;8.20;99.90;;;;;;5141943;28;20261;-47
2023/03/19 05:21:10;;;;;;;22.00;12.60;;;8.10;99.90;;;;;;5142221;28;20509;-47
2023/03/19 05:23:41;;;;;;;23.13;13.27;;;8.00;99.90;;;;;;5140697;28;20440;-47
2023/03/19 05:26:12;;;;;;;19.93;12.47;;;7.90;99.90;;;;;;5155336;28;20463;-49
2023/03/19 05:28:43;;;;;;;18.30;12.80;;;7.90;99.90;;;;;;5146690;28;20222;-49
2023/03/19 05:31:14;;;;;;;31.17;14.00;;;7.90;99.90;;;;;;5135093;28;20190;-48
2023/03/19 05:33:44;;;;;;;23.37;12.80;;;7.90;99.90;;;;;;5142154;28;20872;-49
2023/03/19 05:36:17;;;;;;;21.40;14.07;;;8.00;99.90;;;;;;5149845;28;20469;-46
2023/03/19 05:38:48;;;;;;;22.77;14.67;;;8.00;99.90;;;;;;5145629;28;20197;-48
2023/03/19 05:41:19;;;;;;;29.60;16.53;;;8.00;99.90;;;;;;5158750;28;20441;-47
2023/03/19 05:43:50;;;;;;;28.33;14.60;;;8.00;99.90;;;;;;5149426;28;20599;-47
2023/03/19 05:46:21;;;;;;;22.20;14.93;;;7.90;99.90;;;;;;5141377;28;20193;-48
2023/03/19 05:48:53;;;;;;;17.70;13.50;;;7.80;99.90;;;;;;5167378;28;20228;-48
2023/03/19 05:51:23;;;;;;;35.27;20.27;;;7.90;99.90;;;;;;5149308;28;20993;-46
2023/03/19 05:53:54;;;;;;;43.37;20.77;;;7.90;99.90;;;;;;5143813;28;20569;-47
2023/03/19 05:56:25;;;;;;;35.43;21.87;;;7.80;99.90;;;;;;5142821;28;20219;-47
2023/03/19 05:58:56;;;;;;;45.33;27.40;;;7.70;99.90;;;;;;5141689;28;20669;-47
2023/03/19 06:01:26;;;;;;;41.20;22.73;;;7.60;99.90;;;;;;5144821;28;20212;-48
2023/03/19 06:03:57;;;;;;;33.87;20.83;;;7.70;99.90;;;;;;5146274;28;20444;-47
2023/03/19 06:06:27;;;;;;;37.17;21.30;;;7.70;99.90;;;;;;5156254;28;20220;-47
2023/03/19 06:08:58;;;;;;;29.73;20.20;;;7.90;99.90;;;;;;5143058;28;20209;-47
2023/03/19 06:11:29;;;;;;;40.70;22.33;;;8.00;99.90;;;;;;5161646;28;20626;-49
2023/03/19 06:13:59;;;;;;;38.13;21.17;;;8.00;99.90;;;;;;5161301;28;20197;-48
2023/03/19 06:16:30;;;;;;;45.97;25.10;;;8.10;99.90;;;;;;5143354;28;20301;-47
2023/03/19 06:19:00;;;;;;;58.10;29.47;;;8.20;99.90;;;;;;5147692;28;20201;-47
2023/03/19 06:21:31;;;;;;;65.80;36.90;;;8.30;99.90;;;;;;5150225;28;20269;-47
2023/03/19 06:24:02;;;;;;;44.67;27.97;;;8.80;99.90;;;;;;5145287;28;20177;-48
2023/03/19 06:26:33;;;;;;;74.20;38.10;;;9.30;99.90;;;;;;5164417;28;20253;-48
2023/03/19 06:29:03;;;;;;;56.33;33.80;;;9.70;99.90;;;;;;5134353;28;20216;-46
2023/03/19 06:31:34;;;;;;;44.07;27.87;;;10.30;99.90;;;;;;5148941;28;20444;-49
2023/03/19 06:34:05;;;;;;;51.00;30.83;;;10.50;99.90;;;;;;5150165;28;20181;-47
2023/03/19 06:36:36;;;;;;;38.13;27.20;;;10.60;99.90;;;;;;5146945;28;20210;-48
2023/03/19 06:39:06;;;;;;;54.43;30.93;;;10.90;99.90;;;;;;5151742;28;20208;-46
2023/03/19 06:41:40;;;;;;;66.90;41.67;;;11.10;99.90;;;;;;5148386;28;20185;-47
2023/03/19 06:44:11;;;;;;;42.27;26.10;;;11.60;99.90;;;;;;5151699;28;20189;-50
2023/03/19 06:46:41;;;;;;;34.90;21.53;;;12.60;99.90;;;;;;5140504;28;20456;-48
2023/03/19 06:49:12;;;;;;;30.90;18.23;;;12.30;99.90;;;;;;5141204;28;20222;-47
2023/03/19 06:51:43;;;;;;;24.73;15.87;;;11.60;99.90;;;;;;5146530;28;20178;-49
2023/03/19 06:54:13;;;;;;;17.20;13.83;;;11.20;99.90;;;;;;5165027;28;20186;-47
2023/03/19 06:56:45;;;;;;;17.53;13.27;;;11.10;99.90;;;;;;5136689;28;20236;-48
2023/03/19 06:59:15;;;;;;;14.53;12.40;;;11.10;99.90;;;;;;5137535;28;20224;-47
2023/03/19 07:01:46;;;;;;;23.57;11.30;;;10.90;99.90;;;;;;5149364;28;20438;-47
2023/03/19 07:04:17;;;;;;;19.53;12.20;;;10.70;99.90;;;;;;5146655;28;20186;-48
2023/03/19 07:06:48;;;;;;;13.20;11.67;;;10.50;99.90;;;;;;5146654;28;20447;-50
2023/03/19 07:09:19;;;;;;;14.03;11.53;;;10.30;99.90;;;;;;5146112;28;20463;-47
2023/03/19 07:11:49;;;;;;;14.70;11.70;;;10.20;99.90;;;;;;5140321;28;20181;-49
2023/03/19 07:14:20;;;;;;;15.90;11.10;;;10.10;99.90;;;;;;5153553;28;20201;-47
2023/03/19 07:16:51;;;;;;;15.70;12.33;;;10.00;99.90;;;;;;5143519;28;20217;-47
2023/03/19 07:19:21;;;;;;;25.03;15.10;;;9.90;99.90;;;;;;5143410;28;20255;-46
2023/03/19 07:21:52;;;;;;;19.83;15.33;;;9.80;99.90;;;;;;5150615;28;20225;-49
2023/03/19 07:24:23;;;;;;;19.60;14.50;;;9.60;99.90;;;;;;5139607;28;20532;-47
2023/03/19 07:26:54;;;;;;;25.37;16.13;;;9.60;99.90;;;;;;5146150;28;20196;-47
2023/03/19 07:29:25;;;;;;;25.00;15.33;;;9.60;99.90;;;;;;5149871;28;20202;-47
2023/03/19 07:31:56;;;;;;;23.80;16.10;;;9.60;99.90;;;;;;5145436;28;20987;-49
2023/03/19 07:34:26;;;;;;;20.47;15.60;;;9.50;99.90;;;;;;5148328;28;20181;-49
2023/03/19 07:36:57;;;;;;;20.60;16.37;;;9.40;99.90;;;;;;5150252;28;20850;-49
2023/03/19 07:39:28;;;;;;;26.83;17.90;;;9.30;99.90;;;;;;5165269;28;20198;-49
2023/03/19 07:41:58;;;;;;;33.80;20.07;;;9.10;99.90;;;;;;5146562;28;20238;-46
2023/03/19 07:44:29;;;;;;;41.17;24.43;;;8.80;99.90;;;;;;5146076;28;20196;-46
2023/03/19 07:47:00;;;;;;;54.97;32.43;;;8.60;99.90;;;;;;5151404;28;20677;-47
2023/03/19 07:49:31;;;;;;;138.53;63.33;;;8.40;99.90;;;;;;5157524;28;20213;-48
2023/03/19 07:52:02;;;;;;;71.93;45.30;;;8.40;99.90;;;;;;5144658;28;20443;-47
2023/03/19 07:54:32;;;;;;;60.33;37.23;;;9.00;99.90;;;;;;5146475;28;20182;-46
2023/03/19 07:57:03;;;;;;;67.97;41.23;;;9.30;99.90;;;;;;5133024;28;20217;-47
2023/03/19 07:59:34;;;;;;;68.13;39.77;;;9.40;99.90;;;;;;5162378;28;20205;-47
2023/03/19 08:02:05;;;;;;;57.87;33.33;;;9.30;99.90;;;;;;5148937;28;20661;-46
2023/03/19 08:04:36;;;;;;;60.90;38.07;;;9.10;99.90;;;;;;5147221;28;20201;-47
2023/03/19 08:07:09;;;;;;;53.67;35.10;;;8.90;99.90;;;;;;5145826;28;20593;-48
2023/03/19 08:09:40;;;;;;;60.80;36.30;;;9.10;99.90;;;;;;5146866;28;20454;-47
2023/03/19 08:12:10;;;;;;;43.77;31.10;;;9.30;99.90;;;;;;5144231;28;20856;-47
2023/03/19 08:14:41;;;;;;;50.50;32.53;;;9.40;99.90;;;;;;5143522;28;20197;-49
2023/03/19 08:17:12;;;;;;;45.70;30.07;;;9.40;99.90;;;;;;5144793;28;20760;-49
2023/03/19 08:19:42;;;;;;;45.37;31.50;;;9.10;99.90;;;;;;5141359;28;20209;-51
2023/03/19 08:22:13;;;;;;;52.77;32.00;;;8.90;99.90;;;;;;5153052;28;20184;-47
2023/03/19 08:24:44;;;;;;;54.63;33.80;;;8.80;99.90;;;;;;5145671;28;20190;-48
2023/03/19 08:27:14;;;;;;;52.87;32.63;;;8.80;99.90;;;;;;5142820;28;20185;-46
2023/03/19 08:29:45;;;;;;;53.57;31.03;;;8.90;99.90;;;;;;5143173;28;20212;-47
2023/03/19 08:32:16;;;;;;;42.43;26.50;;;8.90;99.90;;;;;;5143953;28;20182;-49
2023/03/19 08:34:47;;;;;;;39.13;25.00;;;9.10;99.90;;;;;;5127166;28;20519;-46
2023/03/19 08:37:17;;;;;;;38.37;25.70;;;9.10;99.90;;;;;;5145626;28;20316;-47
2023/03/19 08:39:51;;;;;;;48.57;26.70;;;9.20;99.90;;;;;;5144289;28;21056;-48
2023/03/19 08:42:22;;;;;;;40.90;25.33;;;9.30;99.90;;;;;;5151959;28;20667;-46
2023/03/19 08:44:53;;;;;;;40.07;26.80;;;9.20;99.90;;;;;;5142326;28;20516;-46
2023/03/19 08:47:23;;;;;;;33.50;23.70;;;9.20;99.90;;;;;;5143940;28;20193;-47
2023/03/19 08:49:54;;;;;;;33.23;22.17;;;9.20;99.90;;;;;;5142951;28;20242;-46
2023/03/19 08:52:25;;;;;;;45.27;26.73;;;9.10;99.90;;;;;;5145013;28;20197;-48
2023/03/19 08:54:56;;;;;;;41.23;25.57;;;9.20;99.90;;;;;;5147134;28;20188;-48
2023/03/19 08:57:26;;;;;;;34.77;22.87;;;9.00;99.90;;;;;;5145650;28;20213;-47
2023/03/19 08:59:57;;;;;;;43.13;27.20;;;8.90;99.90;;;;;;5139378;28;20561;-47
2023/03/19 09:02:28;;;;;;;47.93;29.00;;;8.70;99.90;;;;;;5141963;28;20189;-50
2023/03/19 09:04:59;;;;;;;46.47;29.37;;;8.60;99.90;;;;;;5139994;28;20461;-47
2023/03/19 09:07:30;;;;;;;52.07;31.27;;;8.60;99.90;;;;;;5141664;28;20554;-46
2023/03/19 09:10:00;;;;;;;51.57;30.97;;;8.50;99.90;;;;;;5130184;28;20212;-48
2023/03/19 09:12:31;;;;;;;62.40;36.37;;;8.50;99.90;;;;;;5140622;28;20185;-49
2023/03/19 09:15:03;;;;;;;79.93;37.90;;;8.50;99.90;;;;;;5141615;28;20496;-49
2023/03/19 09:17:34;;;;;;;72.63;40.43;;;8.50;99.90;;;;;;5142487;28;20487;-46
2023/03/19 09:20:06;;;;;;;73.97;41.50;;;8.40;99.90;;;;;;5138828;28;20445;-48
2023/03/19 09:22:37;;;;;;;73.63;41.27;;;8.40;99.90;;;;;;5122880;28;20302;-46
2023/03/19 09:25:08;;;;;;;73.77;41.63;;;8.40;99.90;;;;;;5142128;28;21101;-47
2023/03/19 09:27:38;;;;;;;72.10;39.10;;;8.50;99.90;;;;;;5135931;28;20185;-45
2023/03/19 09:30:10;;;;;;;85.87;48.37;;;8.50;99.90;;;;;;5153599;28;20771;-46
2023/03/19 09:32:40;;;;;;;78.37;43.27;;;8.50;99.90;;;;;;5136562;28;20184;-48
2023/03/19 09:35:11;;;;;;;76.67;45.13;;;8.60;99.90;;;;;;5143606;28;20457;-47
2023/03/19 09:37:42;;;;;;;76.77;43.17;;;8.60;99.90;;;;;;5122579;28;20185;-47
2023/03/19 09:40:22;;;;;;;78.27;41.50;;;8.60;99.90;;;;;;5139048;28;20189;-47
2023/03/19 09:43:28;;;;;;;106.80;46.90;;;8.60;99.90;;;;;;5139768;28;20223;-46
2023/03/19 09:46:03;;;;;;;84.03;45.10;;;8.70;99.90;;;;;;5142452;28;20443;-46
2023/03/19 09:48:45;;;;;;;90.50;47.93;;;8.70;99.90;;;;;;5160968;22;20507;-53
2023/03/19 09:51:43;;;;;;;79.83;46.30;;;8.80;99.90;;;;;;5159444;28;20462;-51
2023/03/19 09:54:27;;;;;;;94.87;47.00;;;8.90;99.90;;;;;;5164939;28;20443;-53
2023/03/19 09:56:57;;;;;;;106.47;51.87;;;9.20;99.90;;;;;;5166288;28;20823;-52
2023/03/19 09:59:29;;;;;;;75.73;46.13;;;9.40;99.90;;;;;;5168156;28;20462;-55
2023/03/19 10:02:37;;;;;;;87.20;43.17;;;9.60;99.90;;;;;;5161562;28;20204;-52
2023/03/19 10:05:30;;;;;;;68.00;42.07;;;9.40;99.90;;;;;;5167390;28;20436;-52
2023/03/19 10:08:25;;;;;;;75.63;46.13;;;9.40;99.90;;;;;;5165172;28;20588;-52
2023/03/19 10:11:03;;;;;;;79.33;44.57;;;9.40;99.90;;;;;;5171149;28;20443;-51
2023/03/19 10:13:52;;;;;;;81.27;48.70;;;9.40;99.90;;;;;;5165284;28;20439;-51
2023/03/19 10:16:26;;;;;;;74.90;46.23;;;9.50;99.90;;;;;;5165182;28;20461;-52
2023/03/19 10:19:03;;;;;;;95.83;48.23;;;9.60;99.90;;;;;;5167060;28;20452;-52
2023/03/19 10:21:43;;;;;;;75.67;42.30;;;9.80;99.90;;;;;;5156873;28;20432;-53
2023/03/19 10:24:30;;;;;;;70.53;39.90;;;9.80;99.90;;;;;;5159778;28;20597;-52
2023/03/19 10:27:09;;;;;;;75.20;42.43;;;9.80;99.90;;;;;;5159020;28;20463;-53
2023/03/19 10:29:40;;;;;;;74.30;43.30;;;9.70;99.90;;;;;;5170642;28;20468;-53
2023/03/19 10:32:17;;;;;;;109.60;52.53;;;9.60;99.90;;;;;;5153660;28;20443;-52
2023/03/19 10:34:49;;;;;;;68.07;41.73;;;9.70;99.90;;;;;;5162169;28;20497;-53
2023/03/19 10:37:27;;;;;;;89.83;49.23;;;9.90;99.90;;;;;;5160224;28;20463;-51
2023/03/19 10:39:59;;;;;;;76.70;47.47;;;10.00;99.90;;;;;;5161007;28;20932;-52
2023/03/19 10:42:42;;;;;;;75.77;42.77;;;10.30;99.90;;;;;;5158426;28;20496;-52
2023/03/19 10:45:19;;;;;;;57.97;35.37;;;10.40;99.90;;;;;;5155859;28;20819;-55
2023/03/19 10:47:51;;;;;;;83.90;44.83;;;10.60;99.90;;;;;;5159148;28;20483;-52
2023/03/19 10:50:27;;;;;;;50.37;32.13;;;10.70;99.90;;;;;;5154755;28;20588;-53
2023/03/19 10:53:14;;;;;;;56.30;35.40;;;10.80;99.90;;;;;;5164350;28;20733;-53
2023/03/19 10:55:54;;;;;;;54.73;33.33;;;10.90;99.90;;;;;;5161969;28;20464;-54
2023/03/19 10:58:27;;;;;;;69.60;36.73;;;11.00;99.90;;;;;;5160463;28;20446;-55
2023/03/19 11:01:09;;;;;;;56.50;34.77;;;11.00;99.90;;;;;;5165622;28;20438;-53
2023/03/19 11:04:15;;;;;;;45.70;30.30;;;11.10;99.90;;;;;;5156212;28;20454;-55
2023/03/19 11:06:54;;;;;;;40.80;23.80;;;11.20;99.90;;;;;;5152424;28;20446;-55
2023/03/19 11:09:40;;;;;;;41.40;23.13;;;11.20;99.90;;;;;;5168412;28;20495;-55
2023/03/19 11:12:21;;;;;;;36.53;25.13;;;11.20;99.90;;;;;;5158746;28;20594;-54
2023/03/19 11:14:55;;;;;;;34.70;22.40;;;11.10;99.90;;;;;;5161221;28;20458;-54
2023/03/19 11:17:40;;;;;;;33.73;23.80;;;11.10;99.90;;;;;;5150899;28;20472;-55
2023/03/19 11:20:14;;;;;;;33.43;21.87;;;11.10;99.90;;;;;;5149163;28;20452;-56
2023/03/19 11:22:46;;;;;;;35.90;21.17;;;11.10;99.90;;;;;;5148646;28;20458;-55
2023/03/19 11:25:24;;;;;;;26.30;17.80;;;11.20;99.90;;;;;;5160897;28;20507;-54
2023/03/19 11:28:16;;;;;;;29.43;19.43;;;11.20;99.90;;;;;;5161429;28;20455;-53
2023/03/19 11:30:46;;;;;;;24.60;16.23;;;11.30;99.90;;;;;;5155530;28;21048;-54
2023/03/19 11:33:46;;;;;;;17.63;14.47;;;11.40;99.90;;;;;;5157073;28;20433;-54
2023/03/19 11:36:26;;;;;;;15.60;11.70;;;11.60;99.90;;;;;;5153091;28;20208;-53
2023/03/19 11:39:20;;;;;;;16.47;12.07;;;11.50;99.90;;;;;;5176417;28;20455;-53
2023/03/19 11:42:03;;;;;;;17.70;11.40;;;11.40;99.90;;;;;;5160331;28;20451;-52
2023/03/19 11:44:51;;;;;;;22.40;12.63;;;11.50;99.90;;;;;;5159166;28;20435;-54
2023/03/19 11:47:33;;;;;;;15.57;10.30;;;11.70;99.90;;;;;;5161878;28;20452;-54
2023/03/19 11:50:19;;;;;;;13.40;8.97;;;12.00;99.90;;;;;;5162566;28;20510;-55
2023/03/19 11:53:17;;;;;;;11.10;8.77;;;12.20;99.90;;;;;;5162413;28;20428;-53
2023/03/19 11:55:57;;;;;;;14.50;8.63;;;12.50;99.90;;;;;;5162395;28;20998;-53
2023/03/19 11:58:34;;;;;;;19.57;9.47;;;12.60;99.90;;;;;;5162491;28;20514;-53
2023/03/19 12:01:35;;;;;;;11.37;9.07;;;12.80;99.90;;;;;;5161792;28;20451;-54
2023/03/19 12:04:28;;;;;;;10.90;8.83;;;13.10;99.90;;;;;;5161358;28;20457;-55
2023/03/19 12:07:29;;;;;;;15.33;8.30;;;13.10;99.90;;;;;;5161993;28;20451;-55
2023/03/19 12:10:26;;;;;;;10.93;8.23;;;13.20;99.90;;;;;;5167194;28;20482;-54
2023/03/19 12:13:18;;;;;;;10.87;7.70;;;13.30;99.90;;;;;;5162682;28;20498;-52
2023/03/19 12:16:23;;;;;;;11.93;7.90;;;13.40;99.90;;;;;;5151065;28;20663;-52
2023/03/19 12:19:12;;;;;;;10.40;7.50;;;13.60;99.90;;;;;;5174481;28;20487;-52
2023/03/19 12:22:06;;;;;;;8.50;6.17;;;13.80;99.90;;;;;;5162486;28;20436;-55
2023/03/19 12:25:06;;;;;;;14.40;9.10;;;14.10;99.90;;;;;;5162142;28;20436;-53
2023/03/19 12:28:08;;;;;;;7.37;6.23;;;14.30;99.90;;;;;;5166817;28;20443;-53
2023/03/19 12:30:52;;;;;;;10.87;7.37;;;14.50;99.90;;;;;;5152965;28;20486;-53
2023/03/19 12:33:55;;;;;;;6.10;5.60;;;14.60;99.90;;;;;;5165316;28;20469;-54
2023/03/19 12:36:31;;;;;;;6.47;5.87;;;14.80;99.90;;;;;;5151371;28;21789;-54
2023/03/19 12:39:21;;;;;;;8.13;7.33;;;14.90;99.90;;;;;;5161053;28;20463;-53
2023/03/19 12:41:55;;;;;;;9.03;7.60;;;14.80;99.90;;;;;;5155431;28;20436;-54
2023/03/19 12:44:36;;;;;;;7.83;5.87;;;14.80;99.90;;;;;;5156401;28;20440;-53
2023/03/19 12:47:30;;;;;;;5.60;5.10;;;14.90;99.90;;;;;;5168550;28;20572;-53
2023/03/19 12:50:11;;;;;;;9.40;7.23;;;15.10;99.90;;;;;;5156817;28;20492;-54
2023/03/19 12:52:50;;;;;;;7.37;6.60;;;15.40;99.90;;;;;;5158780;28;20516;-55
2023/03/19 12:55:36;;;;;;;7.27;6.57;;;15.60;99.90;;;;;;5159512;28;20447;-53
2023/03/19 12:58:48;;;;;;;9.47;7.30;;;15.70;99.90;;;;;;5162810;28;20440;-52
2023/03/19 13:01:28;;;;;;;9.07;6.17;;;15.80;99.90;;;;;;5158983;28;20458;-53
2023/03/19 13:04:08;;;;;;;8.97;7.23;;;16.00;99.90;;;;;;5144736;28;20471;-52
2023/03/19 13:06:52;;;;;;;8.97;7.40;;;15.90;99.90;;;;;;5156758;28;20476;-54
2023/03/19 13:09:43;;;;;;;8.40;7.10;;;15.90;99.90;;;;;;5156112;28;20615;-54
2023/03/19 13:12:27;;;;;;;7.50;6.83;;;15.90;99.90;;;;;;5159224;28;21062;-53
2023/03/19 13:15:13;;;;;;;11.70;6.80;;;15.90;99.90;;;;;;5161215;28;20457;-52
2023/03/19 13:18:16;;;;;;;7.27;6.57;;;16.10;99.90;;;;;;5170815;28;20424;-53